sensor_id;sensor_type;location;lat;lon;timestamp;pressure;altitude;pressure_sealevel;temperature;humidity
9899;BME280;4988;49.238;6.698;2023-04-27T00:01:28;99260.16;;;7.52;87.80
9899;BME280;4988;49.238;6.698;2023-04-27T00:03:53;99271.38;;;7.61;86.77
9899;BME280;4988;49.238;6.698;2023-04-27T00:06:19;99277.44;;;7.64;87.00
9899;BME280;4988;49.238;6.698;2023-04-27T00:08:44;99265.16;;;7.62;86.73
9899;BME280;4988;49.238;6.698;2023-04-27T00:11:09;99266.00;;;7.64;86.56
9899;BME280;4988;49.238;6.698;2023-04-27T00:13:35;99265.72;;;7.71;87.21
9899;BME280;4988;49.238;6.698;2023-04-27T00:16:00;99260.53;;;7.68;87.81
9899;BME280;4988;49.238;6.698;2023-04-27T00:18:28;99263.28;;;7.65;87.96
9899;BME280;4988;49.238;6.698;2023-04-27T00:20:54;99262.56;;;7.60;88.35
9899;BME280;4988;49.238;6.698;2023-04-27T00:23:19;99268.78;;;7.59;87.98
9899;BME280;4988;49.238;6.698;2023-04-27T00:25:45;99266.19;;;7.57;88.30
9899;BME280;4988;49.238;6.698;2023-04-27T00:28:10;99267.31;;;7.49;89.18
9899;BME280;4988;49.238;6.698;2023-04-27T00:30:35;99266.22;;;7.56;88.85
9899;BME280;4988;49.238;6.698;2023-04-27T00:33:01;99258.25;;;7.56;89.45
9899;BME280;4988;49.238;6.698;2023-04-27T00:35:26;99259.22;;;7.53;89.24
9899;BME280;4988;49.238;6.698;2023-04-27T00:37:54;99265.41;;;7.54;89.45
9899;BME280;4988;49.238;6.698;2023-04-27T00:40:20;99256.53;;;7.55;89.02
9899;BME280;4988;49.238;6.698;2023-04-27T00:42:45;99262.50;;;7.62;89.10
9899;BME280;4988;49.238;6.698;2023-04-27T00:45:11;99263.38;;;7.62;87.31
9899;BME280;4988;49.238;6.698;2023-04-27T00:47:37;99259.09;;;7.58;87.37
9899;BME280;4988;49.238;6.698;2023-04-27T00:50:03;99257.47;;;7.54;87.53
9899;BME280;4988;49.238;6.698;2023-04-27T00:52:32;99253.09;;;7.53;88.30
9899;BME280;4988;49.238;6.698;2023-04-27T00:54:58;99256.66;;;7.52;87.96
9899;BME280;4988;49.238;6.698;2023-04-27T00:57:24;99259.22;;;7.53;87.15
9899;BME280;4988;49.238;6.698;2023-04-27T00:59:49;99256.66;;;7.52;87.06
9899;BME280;4988;49.238;6.698;2023-04-27T01:02:14;99261.63;;;7.61;86.30
9899;BME280;4988;49.238;6.698;2023-04-27T01:04:40;99258.19;;;7.59;86.39
9899;BME280;4988;49.238;6.698;2023-04-27T01:07:06;99256.31;;;7.61;86.37
9899;BME280;4988;49.238;6.698;2023-04-27T01:09:31;99254.44;;;7.65;85.21
9899;BME280;4988;49.238;6.698;2023-04-27T01:11:56;99253.69;;;7.61;86.15
9899;BME280;4988;49.238;6.698;2023-04-27T01:14:22;99258.25;;;7.57;85.68
9899;BME280;4988;49.238;6.698;2023-04-27T01:16:48;99259.94;;;7.59;85.71
9899;BME280;4988;49.238;6.698;2023-04-27T01:19:14;99256.59;;;7.53;85.45
9899;BME280;4988;49.238;6.698;2023-04-27T01:21:39;99256.53;;;7.55;86.18
9899;BME280;4988;49.238;6.698;2023-04-27T01:24:05;99263.44;;;7.61;85.94
9899;BME280;4988;49.238;6.698;2023-04-27T01:26:32;99259.16;;;7.56;86.39
9899;BME280;4988;49.238;6.698;2023-04-27T01:28:57;99254.31;;;7.69;84.49
9899;BME280;4988;49.238;6.698;2023-04-27T01:31:23;99249.97;;;7.67;84.24
9899;BME280;4988;49.238;6.698;2023-04-27T01:33:48;99250.75;;;7.70;84.94
9899;BME280;4988;49.238;6.698;2023-04-27T01:36:13;99250.03;;;7.65;85.24
9899;BME280;4988;49.238;6.698;2023-04-27T01:38:39;99252.75;;;7.64;84.58
9899;BME280;4988;49.238;6.698;2023-04-27T01:41:05;99251.00;;;7.63;85.19
9899;BME280;4988;49.238;6.698;2023-04-27T01:43:33;99249.13;;;7.66;84.37
9899;BME280;4988;49.238;6.698;2023-04-27T01:46:06;99255.13;;;7.71;83.94
9899;BME280;4988;49.238;6.698;2023-04-27T01:48:32;99254.31;;;7.69;83.94
9899;BME280;4988;49.238;6.698;2023-04-27T01:50:57;99263.88;;;7.73;83.93
9899;BME280;4988;49.238;6.698;2023-04-27T01:53:22;99262.19;;;7.72;83.76
9899;BME280;4988;49.238;6.698;2023-04-27T01:55:48;99262.31;;;7.68;84.53
9899;BME280;4988;49.238;6.698;2023-04-27T01:58:13;99257.97;;;7.65;85.16
9899;BME280;4988;49.238;6.698;2023-04-27T02:00:38;99260.38;;;7.73;84.33
9899;BME280;4988;49.238;6.698;2023-04-27T02:03:03;99256.75;;;7.76;84.35
9899;BME280;4988;49.238;6.698;2023-04-27T02:05:29;99259.41;;;7.76;83.51
9899;BME280;4988;49.238;6.698;2023-04-27T02:07:54;99259.34;;;7.77;82.52
9899;BME280;4988;49.238;6.698;2023-04-27T02:10:19;99262.38;;;7.66;83.63
9899;BME280;4988;49.238;6.698;2023-04-27T02:12:46;99261.22;;;7.73;83.61
9899;BME280;4988;49.238;6.698;2023-04-27T02:15:12;99273.88;;;7.65;83.10
9899;BME280;4988;49.238;6.698;2023-04-27T02:17:37;99273.88;;;7.65;83.35
9899;BME280;4988;49.238;6.698;2023-04-27T02:20:04;99268.59;;;7.65;82.87
9899;BME280;4988;49.238;6.698;2023-04-27T02:22:31;99264.97;;;7.68;83.20
9899;BME280;4988;49.238;6.698;2023-04-27T02:24:56;99262.47;;;7.63;83.54
9899;BME280;4988;49.238;6.698;2023-04-27T02:27:21;99258.94;;;7.63;83.50
9899;BME280;4988;49.238;6.698;2023-04-27T02:29:47;99260.00;;;7.57;83.40
9899;BME280;4988;49.238;6.698;2023-04-27T02:32:12;99258.13;;;7.61;83.73
9899;BME280;4988;49.238;6.698;2023-04-27T02:34:37;99267.81;;;7.62;83.02
9899;BME280;4988;49.238;6.698;2023-04-27T02:37:02;99270.22;;;7.69;82.56
9899;BME280;4988;49.238;6.698;2023-04-27T02:39:28;99270.41;;;7.63;82.14
9899;BME280;4988;49.238;6.698;2023-04-27T02:41:53;99267.91;;;7.59;83.06
9899;BME280;4988;49.238;6.698;2023-04-27T02:44:18;99275.03;;;7.56;83.18
9899;BME280;4988;49.238;6.698;2023-04-27T02:46:43;99266.19;;;7.57;82.94
9899;BME280;4988;49.238;6.698;2023-04-27T02:49:09;99272.41;;;7.56;83.37
9899;BME280;4988;49.238;6.698;2023-04-27T02:51:34;99273.44;;;7.51;84.17
9899;BME280;4988;49.238;6.698;2023-04-27T02:53:59;99272.72;;;7.46;85.45
9899;BME280;4988;49.238;6.698;2023-04-27T02:56:25;99269.81;;;7.25;86.06
9899;BME280;4988;49.238;6.698;2023-04-27T02:58:50;99279.16;;;7.07;86.62
9899;BME280;4988;49.238;6.698;2023-04-27T03:01:15;99273.84;;;7.08;87.81
9899;BME280;4988;49.238;6.698;2023-04-27T03:03:44;99266.63;;;7.14;88.21
9899;BME280;4988;49.238;6.698;2023-04-27T03:06:09;99265.75;;;7.13;88.78
9899;BME280;4988;49.238;6.698;2023-04-27T03:08:35;99271.75;;;7.20;89.19
9899;BME280;4988;49.238;6.698;2023-04-27T03:11:00;99265.16;;;7.33;88.32
9899;BME280;4988;49.238;6.698;2023-04-27T03:13:25;99268.97;;;7.24;87.67
9899;BME280;4988;49.238;6.698;2023-04-27T03:15:52;99268.19;;;7.21;87.55
9899;BME280;4988;49.238;6.698;2023-04-27T03:18:17;99269.09;;;7.20;88.50
9899;BME280;4988;49.238;6.698;2023-04-27T03:20:42;99257.50;;;7.24;88.71
9899;BME280;4988;49.238;6.698;2023-04-27T03:23:07;99271.81;;;7.17;88.92
9899;BME280;4988;49.238;6.698;2023-04-27T03:25:33;99265.00;;;7.10;88.96
9899;BME280;4988;49.238;6.698;2023-04-27T03:27:58;99261.47;;;7.09;89.06
9899;BME280;4988;49.238;6.698;2023-04-27T03:30:23;99260.66;;;7.07;89.25
9899;BME280;4988;49.238;6.698;2023-04-27T03:32:49;99261.53;;;7.07;88.79
9899;BME280;4988;49.238;6.698;2023-04-27T03:35:14;99259.91;;;7.03;87.99
9899;BME280;4988;49.238;6.698;2023-04-27T03:37:40;99262.53;;;7.03;88.40
9899;BME280;4988;49.238;6.698;2023-04-27T03:40:05;99264.53;;;6.95;88.48
9899;BME280;4988;49.238;6.698;2023-04-27T03:42:33;99256.66;;;6.94;88.55
9899;BME280;4988;49.238;6.698;2023-04-27T03:44:59;99261.97;;;6.92;88.49
9899;BME280;4988;49.238;6.698;2023-04-27T03:47:24;99272.66;;;6.89;88.14
9899;BME280;4988;49.238;6.698;2023-04-27T03:49:50;99265.88;;;6.79;88.07
9899;BME280;4988;49.238;6.698;2023-04-27T03:52:15;99263.47;;;6.71;88.50
9899;BME280;4988;49.238;6.698;2023-04-27T03:54:40;99268.44;;;6.50;89.80
9899;BME280;4988;49.238;6.698;2023-04-27T03:57:05;99262.66;;;6.36;89.78
9899;BME280;4988;49.238;6.698;2023-04-27T03:59:31;99261.16;;;6.25;90.72
9899;BME280;4988;49.238;6.698;2023-04-27T04:01:56;99265.34;;;6.34;91.24
9899;BME280;4988;49.238;6.698;2023-04-27T04:04:22;99269.81;;;6.32;91.89
9899;BME280;4988;49.238;6.698;2023-04-27T04:06:47;99270.72;;;6.31;91.90
9899;BME280;4988;49.238;6.698;2023-04-27T04:09:12;99272.63;;;6.26;91.78
9899;BME280;4988;49.238;6.698;2023-04-27T04:11:38;99271.84;;;6.21;91.51
9899;BME280;4988;49.238;6.698;2023-04-27T04:14:03;99272.78;;;6.18;91.85
9899;BME280;4988;49.238;6.698;2023-04-27T04:16:28;99272.63;;;6.26;91.21
9899;BME280;4988;49.238;6.698;2023-04-27T04:18:54;99273.78;;;6.14;91.74
9899;BME280;4988;49.238;6.698;2023-04-27T04:21:19;99274.44;;;6.24;92.19
9899;BME280;4988;49.238;6.698;2023-04-27T04:23:45;99279.88;;;6.18;92.15
9899;BME280;4988;49.238;6.698;2023-04-27T04:26:10;99272.25;;;6.05;92.84
9899;BME280;4988;49.238;6.698;2023-04-27T04:28:35;99280.47;;;5.93;93.63
9899;BME280;4988;49.238;6.698;2023-04-27T04:31:01;99280.34;;;5.99;94.24
9899;BME280;4988;49.238;6.698;2023-04-27T04:33:27;99273.91;;;6.11;94.37
9899;BME280;4988;49.238;6.698;2023-04-27T04:35:52;99278.28;;;6.10;94.91
9899;BME280;4988;49.238;6.698;2023-04-27T04:38:18;99286.91;;;6.19;95.47
9899;BME280;4988;49.238;6.698;2023-04-27T04:40:43;99284.16;;;6.23;95.55
9899;BME280;4988;49.238;6.698;2023-04-27T04:43:09;99275.22;;;6.27;94.68
9899;BME280;4988;49.238;6.698;2023-04-27T04:45:35;99285.75;;;6.29;94.53
9899;BME280;4988;49.238;6.698;2023-04-27T04:48:00;99292.53;;;6.39;94.25
9899;BME280;4988;49.238;6.698;2023-04-27T04:50:26;99288.22;;;6.35;94.53
9899;BME280;4988;49.238;6.698;2023-04-27T04:52:51;99293.28;;;6.44;93.84
9899;BME280;4988;49.238;6.698;2023-04-27T04:55:17;99298.47;;;6.48;93.96
9899;BME280;4988;49.238;6.698;2023-04-27T04:57:42;99300.31;;;6.46;94.17
9899;BME280;4988;49.238;6.698;2023-04-27T05:00:08;99307.47;;;6.40;95.21
9899;BME280;4988;49.238;6.698;2023-04-27T05:02:41;99300.94;;;6.55;94.71
9899;BME280;4988;49.238;6.698;2023-04-27T05:05:07;99311.34;;;6.62;93.87
9899;BME280;4988;49.238;6.698;2023-04-27T05:07:32;99311.34;;;6.60;93.79
9899;BME280;4988;49.238;6.698;2023-04-27T05:09:58;99321.13;;;6.58;93.79
9899;BME280;4988;49.238;6.698;2023-04-27T05:12:23;99314.09;;;6.57;94.35
9899;BME280;4988;49.238;6.698;2023-04-27T05:14:50;99316.59;;;6.63;93.43
9899;BME280;4988;49.238;6.698;2023-04-27T05:17:15;99314.84;;;6.62;93.49
9899;BME280;4988;49.238;6.698;2023-04-27T05:19:41;99317.56;;;6.59;94.14
9899;BME280;4988;49.238;6.698;2023-04-27T05:22:06;99317.41;;;6.65;94.10
9899;BME280;4988;49.238;6.698;2023-04-27T05:24:32;99328.84;;;6.66;93.77
9899;BME280;4988;49.238;6.698;2023-04-27T05:26:57;99324.06;;;6.79;93.50
9899;BME280;4988;49.238;6.698;2023-04-27T05:29:22;99328.28;;;6.86;93.72
9899;BME280;4988;49.238;6.698;2023-04-27T05:31:48;99322.03;;;6.90;93.09
9899;BME280;4988;49.238;6.698;2023-04-27T05:34:13;99335.31;;;6.87;92.50
9899;BME280;4988;49.238;6.698;2023-04-27T05:36:38;99329.47;;;6.75;92.81
9899;BME280;4988;49.238;6.698;2023-04-27T05:39:04;99325.75;;;6.83;93.22
9899;BME280;4988;49.238;6.698;2023-04-27T05:41:30;99312.97;;;6.97;92.93
9899;BME280;4988;49.238;6.698;2023-04-27T05:43:55;99314.28;;;7.14;91.49
9899;BME280;4988;49.238;6.698;2023-04-27T05:46:20;99317.59;;;7.22;89.22
9899;BME280;4988;49.238;6.698;2023-04-27T05:48:46;99312.88;;;7.32;87.23
9899;BME280;4988;49.238;6.698;2023-04-27T05:51:11;99316.00;;;7.45;86.14
9899;BME280;4988;49.238;6.698;2023-04-27T05:53:37;99321.22;;;7.48;84.89
9899;BME280;4988;49.238;6.698;2023-04-27T05:56:02;99319.19;;;7.56;84.46
9899;BME280;4988;49.238;6.698;2023-04-27T05:58:30;99328.94;;;7.55;83.75
9899;BME280;4988;49.238;6.698;2023-04-27T06:00:56;99329.91;;;7.51;84.00
9899;BME280;4988;49.238;6.698;2023-04-27T06:03:22;99325.22;;;7.61;83.30
9899;BME280;4988;49.238;6.698;2023-04-27T06:05:55;99333.03;;;7.66;83.07
9899;BME280;4988;49.238;6.698;2023-04-27T06:08:21;99341.66;;;7.72;82.61
9899;BME280;4988;49.238;6.698;2023-04-27T06:10:47;99334.25;;;7.84;80.84
9899;BME280;4988;49.238;6.698;2023-04-27T06:13:14;99335.88;;;7.88;81.32
9899;BME280;4988;49.238;6.698;2023-04-27T06:15:39;99345.94;;;8.05;80.84
9899;BME280;4988;49.238;6.698;2023-04-27T06:18:04;99339.56;;;8.11;78.52
9899;BME280;4988;49.238;6.698;2023-04-27T06:20:30;99335.94;;;8.13;77.99
9899;BME280;4988;49.238;6.698;2023-04-27T06:22:56;99343.97;;;8.12;77.39
9899;BME280;4988;49.238;6.698;2023-04-27T06:25:22;99341.63;;;8.28;77.37
9899;BME280;4988;49.238;6.698;2023-04-27T06:27:47;99336.38;;;8.26;77.89
9899;BME280;4988;49.238;6.698;2023-04-27T06:30:13;99352.09;;;8.32;78.15
9899;BME280;4988;49.238;6.698;2023-04-27T06:32:38;99355.25;;;8.44;77.20
9899;BME280;4988;49.238;6.698;2023-04-27T06:35:04;99341.50;;;8.59;75.63
9899;BME280;4988;49.238;6.698;2023-04-27T06:37:30;99349.38;;;8.62;76.24
9899;BME280;4988;49.238;6.698;2023-04-27T06:39:55;99354.72;;;8.61;75.79
9899;BME280;4988;49.238;6.698;2023-04-27T06:42:20;99342.81;;;8.73;75.45
9899;BME280;4988;49.238;6.698;2023-04-27T06:44:46;99347.91;;;8.79;77.18
9899;BME280;4988;49.238;6.698;2023-04-27T06:47:11;99346.06;;;8.81;76.91
9899;BME280;4988;49.238;6.698;2023-04-27T06:49:37;99350.94;;;8.93;76.25
9899;BME280;4988;49.238;6.698;2023-04-27T06:52:03;99340.13;;;8.98;75.44
9899;BME280;4988;49.238;6.698;2023-04-27T06:54:29;99338.22;;;9.01;75.57
9899;BME280;4988;49.238;6.698;2023-04-27T06:56:54;99344.78;;;9.16;74.02
9899;BME280;4988;49.238;6.698;2023-04-27T06:59:20;99345.72;;;9.15;73.92
9899;BME280;4988;49.238;6.698;2023-04-27T07:01:45;99338.59;;;9.16;73.53
9899;BME280;4988;49.238;6.698;2023-04-27T07:04:11;99340.09;;;9.23;74.35
9899;BME280;4988;49.238;6.698;2023-04-27T07:06:36;99342.66;;;9.26;74.46
9899;BME280;4988;49.238;6.698;2023-04-27T07:09:02;99342.28;;;9.36;74.18
9899;BME280;4988;49.238;6.698;2023-04-27T07:11:30;99340.09;;;9.47;73.31
9899;BME280;4988;49.238;6.698;2023-04-27T07:13:55;99339.25;;;9.46;72.65
9899;BME280;4988;49.238;6.698;2023-04-27T07:16:20;99335.44;;;9.54;73.03
9899;BME280;4988;49.238;6.698;2023-04-27T07:18:46;99344.00;;;9.60;73.44
9899;BME280;4988;49.238;6.698;2023-04-27T07:21:11;99342.00;;;9.67;72.90
9899;BME280;4988;49.238;6.698;2023-04-27T07:23:38;99334.38;;;9.80;71.62
9899;BME280;4988;49.238;6.698;2023-04-27T07:26:04;99331.47;;;9.86;71.67
9899;BME280;4988;49.238;6.698;2023-04-27T07:28:30;99334.56;;;9.97;71.71
9899;BME280;4988;49.238;6.698;2023-04-27T07:30:55;99339.53;;;10.07;70.44
9899;BME280;4988;49.238;6.698;2023-04-27T07:33:22;99348.06;;;10.15;70.08
9899;BME280;4988;49.238;6.698;2023-04-27T07:35:47;99341.44;;;10.25;69.60
9899;BME280;4988;49.238;6.698;2023-04-27T07:38:15;99341.28;;;10.28;68.38
9899;BME280;4988;49.238;6.698;2023-04-27T07:40:41;99335.84;;;10.32;68.65
9899;BME280;4988;49.238;6.698;2023-04-27T07:43:07;99332.84;;;10.41;68.76
9899;BME280;4988;49.238;6.698;2023-04-27T07:45:33;99324.38;;;10.52;67.82
9899;BME280;4988;49.238;6.698;2023-04-27T07:48:03;99335.50;;;10.61;67.99
9899;BME280;4988;49.238;6.698;2023-04-27T07:50:29;99326.19;;;10.72;68.13
9899;BME280;4988;49.238;6.698;2023-04-27T07:52:56;99329.25;;;10.83;67.81
9899;BME280;4988;49.238;6.698;2023-04-27T07:55:22;99326.97;;;10.94;67.06
9899;BME280;4988;49.238;6.698;2023-04-27T07:57:54;99322.94;;;11.05;66.34
9899;BME280;4988;49.238;6.698;2023-04-27T08:00:20;99311.03;;;11.14;64.91
9899;BME280;4988;49.238;6.698;2023-04-27T08:02:46;99315.19;;;11.19;64.13
9899;BME280;4988;49.238;6.698;2023-04-27T08:05:12;99318.66;;;11.21;63.62
9899;BME280;4988;49.238;6.698;2023-04-27T08:07:38;99321.91;;;11.28;64.21
9899;BME280;4988;49.238;6.698;2023-04-27T08:10:04;99326.44;;;11.45;63.51
9899;BME280;4988;49.238;6.698;2023-04-27T08:12:31;99326.16;;;11.51;62.25
9899;BME280;4988;49.238;6.698;2023-04-27T08:14:57;99330.19;;;11.60;62.10
9899;BME280;4988;49.238;6.698;2023-04-27T08:17:22;99315.78;;;11.64;61.86
9899;BME280;4988;49.238;6.698;2023-04-27T08:19:47;99316.94;;;11.78;61.86
9899;BME280;4988;49.238;6.698;2023-04-27T08:22:12;99318.22;;;11.88;61.25
9899;BME280;4988;49.238;6.698;2023-04-27T08:24:38;99322.19;;;11.98;61.16
9899;BME280;4988;49.238;6.698;2023-04-27T08:27:05;99320.81;;;12.09;62.77
9899;BME280;4988;49.238;6.698;2023-04-27T08:29:30;99310.38;;;12.21;62.78
9899;BME280;4988;49.238;6.698;2023-04-27T08:31:58;99316.19;;;12.30;61.31
9899;BME280;4988;49.238;6.698;2023-04-27T08:34:24;99307.16;;;12.32;60.14
9899;BME280;4988;49.238;6.698;2023-04-27T08:36:49;99306.31;;;12.32;59.93
9899;BME280;4988;49.238;6.698;2023-04-27T08:39:15;99310.06;;;12.45;59.48
9899;BME280;4988;49.238;6.698;2023-04-27T08:41:42;99308.66;;;12.55;58.70
9899;BME280;4988;49.238;6.698;2023-04-27T08:44:08;99305.88;;;12.75;59.38
9899;BME280;4988;49.238;6.698;2023-04-27T08:46:33;99303.44;;;12.87;58.30
9899;BME280;4988;49.238;6.698;2023-04-27T08:48:58;99292.84;;;13.02;58.91
9899;BME280;4988;49.238;6.698;2023-04-27T08:51:24;99294.19;;;13.11;58.21
9899;BME280;4988;49.238;6.698;2023-04-27T08:53:53;99287.47;;;13.19;57.29
9899;BME280;4988;49.238;6.698;2023-04-27T08:56:19;99287.66;;;13.32;57.07
9899;BME280;4988;49.238;6.698;2023-04-27T08:58:47;99294.28;;;13.43;56.78
9899;BME280;4988;49.238;6.698;2023-04-27T09:01:13;99283.84;;;13.54;57.91
9899;BME280;4988;49.238;6.698;2023-04-27T09:03:38;99280.63;;;13.63;55.33
9899;BME280;4988;49.238;6.698;2023-04-27T09:06:04;99278.75;;;13.65;54.31
9899;BME280;4988;49.238;6.698;2023-04-27T09:08:46;99277.25;;;13.60;55.52
9899;BME280;4988;49.238;6.698;2023-04-27T09:11:14;99278.25;;;13.59;54.66
9899;BME280;4988;49.238;6.698;2023-04-27T09:13:40;99277.09;;;13.63;53.80
9899;BME280;4988;49.238;6.698;2023-04-27T09:16:10;99281.41;;;13.65;53.71
9899;BME280;4988;49.238;6.698;2023-04-27T09:18:40;99274.78;;;13.73;53.73
9899;BME280;4988;49.238;6.698;2023-04-27T09:21:06;99275.25;;;13.79;53.67
9899;BME280;4988;49.238;6.698;2023-04-27T09:23:36;99273.97;;;13.87;53.40
9899;BME280;4988;49.238;6.698;2023-04-27T09:26:03;99283.72;;;13.88;53.13
9899;BME280;4988;49.238;6.698;2023-04-27T09:28:33;99285.00;;;13.96;52.35
9899;BME280;4988;49.238;6.698;2023-04-27T09:31:01;99289.53;;;14.10;51.60
9899;BME280;4988;49.238;6.698;2023-04-27T09:33:29;99291.28;;;14.11;52.62
9899;BME280;4988;49.238;6.698;2023-04-27T09:35:58;99296.09;;;14.21;52.87
9899;BME280;4988;49.238;6.698;2023-04-27T09:38:23;99296.09;;;14.21;52.24
9899;BME280;4988;49.238;6.698;2023-04-27T09:40:50;99295.75;;;14.27;51.79
9899;BME280;4988;49.238;6.698;2023-04-27T09:43:16;99288.50;;;14.29;51.82
9899;BME280;4988;49.238;6.698;2023-04-27T09:45:42;99279.47;;;14.30;51.80
9899;BME280;4988;49.238;6.698;2023-04-27T09:48:08;99283.97;;;14.29;51.59
9899;BME280;4988;49.238;6.698;2023-04-27T09:50:38;99277.22;;;14.38;52.10
9899;BME280;4988;49.238;6.698;2023-04-27T09:53:34;99274.94;;;14.46;51.40
9899;BME280;4988;49.238;6.698;2023-04-27T10:01:48;99274.63;;;14.82;51.81
9899;BME280;4988;49.238;6.698;2023-04-27T10:07:13;99268.34;;;14.97;49.90
9899;BME280;4988;49.238;6.698;2023-04-27T10:09:44;99282.13;;;15.05;50.20
9899;BME280;4988;49.238;6.698;2023-04-27T10:12:17;99279.06;;;15.11;49.36
9899;BME280;4988;49.238;6.698;2023-04-27T10:14:57;99281.53;;;15.15;50.28
9899;BME280;4988;49.238;6.698;2023-04-27T10:17:34;99275.78;;;15.21;49.34
9899;BME280;4988;49.238;6.698;2023-04-27T10:20:02;99276.56;;;15.37;49.36
9899;BME280;4988;49.238;6.698;2023-04-27T10:22:40;99262.34;;;15.50;48.45
9899;BME280;4988;49.238;6.698;2023-04-27T10:25:16;99267.06;;;15.46;48.12
9899;BME280;4988;49.238;6.698;2023-04-27T10:27:43;99261.03;;;15.28;49.57
9899;BME280;4988;49.238;6.698;2023-04-27T10:30:12;99265.06;;;15.35;48.90
9899;BME280;4988;49.238;6.698;2023-04-27T10:32:49;99255.75;;;15.41;47.94
9899;BME280;4988;49.238;6.698;2023-04-27T10:35:15;99254.13;;;15.38;49.02
9899;BME280;4988;49.238;6.698;2023-04-27T10:37:41;99255.44;;;15.46;49.46
9899;BME280;4988;49.238;6.698;2023-04-27T10:40:09;99261.75;;;15.59;49.19
9899;BME280;4988;49.238;6.698;2023-04-27T10:42:35;99266.19;;;15.73;50.06
9899;BME280;4988;49.238;6.698;2023-04-27T10:45:01;99255.94;;;15.80;48.28
9899;BME280;4988;49.238;6.698;2023-04-27T10:47:43;99253.97;;;15.96;50.20
9899;BME280;4988;49.238;6.698;2023-04-27T10:50:09;99245.50;;;16.02;49.40
9899;BME280;4988;49.238;6.698;2023-04-27T10:52:41;99243.41;;;16.07;48.59
9899;BME280;4988;49.238;6.698;2023-04-27T10:55:21;99234.34;;;16.08;47.13
9899;BME280;4988;49.238;6.698;2023-04-27T10:57:47;99235.06;;;16.25;48.34
9899;BME280;4988;49.238;6.698;2023-04-27T11:00:14;99239.34;;;16.28;47.33
9899;BME280;4988;49.238;6.698;2023-04-27T11:02:41;99232.91;;;16.30;47.14
9899;BME280;4988;49.238;6.698;2023-04-27T11:05:16;99232.50;;;16.36;47.23
9899;BME280;4988;49.238;6.698;2023-04-27T11:07:42;99218.44;;;16.46;45.99
9899;BME280;4988;49.238;6.698;2023-04-27T11:10:08;99215.31;;;16.52;46.35
9899;BME280;4988;49.238;6.698;2023-04-27T11:12:35;99213.78;;;16.48;46.87
9899;BME280;4988;49.238;6.698;2023-04-27T11:15:00;99210.03;;;16.50;46.29
9899;BME280;4988;49.238;6.698;2023-04-27T11:17:30;99204.25;;;16.69;47.41
9899;BME280;4988;49.238;6.698;2023-04-27T11:19:56;99200.03;;;16.78;47.31
9899;BME280;4988;49.238;6.698;2023-04-27T11:22:21;99197.03;;;16.83;45.72
9899;BME280;4988;49.238;6.698;2023-04-27T11:24:51;99201.66;;;16.81;44.81
9899;BME280;4988;49.238;6.698;2023-04-27T11:27:17;99200.25;;;16.75;46.83
9899;BME280;4988;49.238;6.698;2023-04-27T11:29:43;99203.81;;;16.76;46.39
9899;BME280;4988;49.238;6.698;2023-04-27T11:32:20;99192.28;;;16.86;46.39
9899;BME280;4988;49.238;6.698;2023-04-27T11:34:50;99187.94;;;17.10;49.17
9899;BME280;4988;49.238;6.698;2023-04-27T11:37:24;99192.28;;;17.36;48.41
9899;BME280;4988;49.238;6.698;2023-04-27T11:39:50;99198.34;;;17.64;47.32
9899;BME280;4988;49.238;6.698;2023-04-27T11:44:57;99189.03;;;17.68;45.99
9899;BME280;4988;49.238;6.698;2023-04-27T11:47:24;99184.81;;;17.53;46.34
9899;BME280;4988;49.238;6.698;2023-04-27T11:49:57;99192.72;;;17.43;46.42
9899;BME280;4988;49.238;6.698;2023-04-27T11:52:33;99198.16;;;17.55;46.31
9899;BME280;4988;49.238;6.698;2023-04-27T11:54:59;99185.47;;;17.57;46.04
9899;BME280;4988;49.238;6.698;2023-04-27T11:57:27;99176.13;;;17.49;44.11
9899;BME280;4988;49.238;6.698;2023-04-27T11:59:54;99181.00;;;17.44;45.50
9899;BME280;4988;49.238;6.698;2023-04-27T12:02:19;99167.59;;;17.56;44.94
9899;BME280;4988;49.238;6.698;2023-04-27T12:04:47;99163.28;;;17.53;44.04
9899;BME280;4988;49.238;6.698;2023-04-27T12:07:12;99153.38;;;17.53;43.73
9899;BME280;4988;49.238;6.698;2023-04-27T12:09:38;99159.16;;;17.60;46.47
9899;BME280;4988;49.238;6.698;2023-04-27T12:12:03;99155.91;;;17.68;45.51
9899;BME280;4988;49.238;6.698;2023-04-27T12:14:29;99153.72;;;17.73;45.24
9899;BME280;4988;49.238;6.698;2023-04-27T12:16:54;99164.75;;;17.81;44.42
9899;BME280;4988;49.238;6.698;2023-04-27T12:19:20;99167.09;;;17.86;43.81
9899;BME280;4988;49.238;6.698;2023-04-27T12:21:48;99162.78;;;17.83;43.82
9899;BME280;4988;49.238;6.698;2023-04-27T12:24:13;99170.03;;;17.83;43.99
9899;BME280;4988;49.238;6.698;2023-04-27T12:26:38;99170.59;;;17.99;46.37
9899;BME280;4988;49.238;6.698;2023-04-27T12:29:04;99165.50;;;18.19;43.62
9899;BME280;4988;49.238;6.698;2023-04-27T12:31:29;99156.72;;;18.40;47.01
9899;BME280;4988;49.238;6.698;2023-04-27T12:33:55;99161.63;;;18.46;45.21
9899;BME280;4988;49.238;6.698;2023-04-27T12:36:20;99162.75;;;18.43;43.06
9899;BME280;4988;49.238;6.698;2023-04-27T12:38:45;99158.06;;;18.34;43.20
9899;BME280;4988;49.238;6.698;2023-04-27T12:41:11;99154.09;;;18.15;44.78
9899;BME280;4988;49.238;6.698;2023-04-27T12:43:36;99153.13;;;18.05;44.98
9899;BME280;4988;49.238;6.698;2023-04-27T12:46:02;99157.03;;;18.01;43.37
9899;BME280;4988;49.238;6.698;2023-04-27T12:48:28;99148.22;;;17.86;44.98
9899;BME280;4988;49.238;6.698;2023-04-27T12:50:53;99148.94;;;17.77;46.32
9899;BME280;4988;49.238;6.698;2023-04-27T12:53:18;99146.28;;;17.88;47.33
9899;BME280;4988;49.238;6.698;2023-04-27T12:55:45;99151.03;;;18.09;47.40
9899;BME280;4988;49.238;6.698;2023-04-27T12:58:11;99150.28;;;18.07;45.18
9899;BME280;4988;49.238;6.698;2023-04-27T13:00:36;99151.88;;;17.98;44.70
9899;BME280;4988;49.238;6.698;2023-04-27T13:03:02;99151.66;;;17.88;44.62
9899;BME280;4988;49.238;6.698;2023-04-27T13:05:28;99148.63;;;17.93;45.76
9899;BME280;4988;49.238;6.698;2023-04-27T13:07:53;99150.28;;;18.07;44.46
9899;BME280;4988;49.238;6.698;2023-04-27T13:10:19;99154.22;;;18.14;43.97
9899;BME280;4988;49.238;6.698;2023-04-27T13:12:44;99158.41;;;18.18;44.23
9899;BME280;4988;49.238;6.698;2023-04-27T13:15:10;99157.06;;;18.12;43.40
9899;BME280;4988;49.238;6.698;2023-04-27T13:17:35;99159.97;;;18.09;45.45
9899;BME280;4988;49.238;6.698;2023-04-27T13:20:01;99168.69;;;18.13;44.07
9899;BME280;4988;49.238;6.698;2023-04-27T13:22:27;99157.88;;;18.02;43.82
9899;BME280;4988;49.238;6.698;2023-04-27T13:24:52;99152.19;;;17.93;44.53
9899;BME280;4988;49.238;6.698;2023-04-27T13:27:17;99156.63;;;17.94;44.52
9899;BME280;4988;49.238;6.698;2023-04-27T13:29:44;99151.88;;;17.98;44.42
9899;BME280;4988;49.238;6.698;2023-04-27T13:32:09;99159.09;;;17.97;45.00
9899;BME280;4988;49.238;6.698;2023-04-27T13:34:35;99152.50;;;18.02;44.20